createdAt,value
2023-05-07T00:00:10.226Z,24.15
2023-05-07T00:02:40.293Z,24.16
2023-05-07T00:05:10.239Z,24.14
2023-05-07T00:07:39.052Z,24.14
2023-05-07T00:10:10.096Z,24.07
2023-05-07T00:12:38.773Z,24.04
2023-05-07T00:15:09.657Z,24.02
2023-05-07T00:17:39.907Z,24.01
2023-05-07T00:20:09.745Z,24.00
2023-05-07T00:25:08.282Z,23.99
2023-05-07T00:27:37.046Z,23.99
2023-05-07T00:30:06.496Z,24.01
2023-05-07T00:32:34.959Z,24.00
2023-05-07T00:35:06.629Z,24.00
2023-05-07T00:37:35.003Z,23.99
2023-05-07T00:40:05.637Z,23.99
2023-05-07T00:42:34.400Z,23.99
2023-05-07T00:45:02.904Z,23.99
2023-05-07T00:47:31.498Z,23.99
2023-05-07T00:50:00.634Z,23.97
2023-05-07T00:52:31.248Z,23.95
2023-05-07T00:54:59.709Z,23.92
2023-05-07T00:57:28.081Z,23.90
2023-05-07T00:59:56.623Z,23.89
2023-05-07T01:02:25.391Z,23.88
2023-05-07T01:04:53.947Z,23.87
2023-05-07T01:07:22.970Z,23.85
2023-05-07T01:09:52.932Z,23.87
2023-05-07T01:12:21.937Z,23.85
2023-05-07T01:14:51.500Z,23.85
2023-05-07T01:17:20.181Z,23.83
2023-05-07T01:19:50.054Z,23.82
2023-05-07T01:22:33.109Z,23.81
2023-05-07T01:25:02.689Z,23.78
2023-05-07T01:27:32.071Z,23.78
2023-05-07T01:30:00.755Z,23.77
2023-05-07T01:32:35.932Z,23.79
2023-05-07T01:35:07.937Z,23.77
2023-05-07T01:37:38.646Z,23.77
2023-05-07T01:40:09.507Z,23.75
2023-05-07T01:42:38.883Z,23.74
2023-05-07T01:45:09.003Z,23.71
2023-05-07T01:47:39.545Z,23.70
2023-05-07T01:50:11.168Z,23.69
2023-05-07T01:52:42.105Z,23.67
2023-05-07T01:55:11.175Z,23.66
2023-05-07T01:57:39.520Z,23.66
2023-05-07T02:00:10.224Z,23.66
2023-05-07T02:02:46.485Z,23.66
2023-05-07T02:05:33.331Z,23.64
2023-05-07T02:08:09.400Z,23.65
2023-05-07T02:10:38.060Z,23.64
2023-05-07T02:13:08.222Z,23.63
2023-05-07T02:15:36.953Z,23.63
2023-05-07T02:18:08.742Z,23.63
2023-05-07T02:20:37.677Z,23.62
2023-05-07T02:23:06.261Z,23.61
2023-05-07T02:25:36.030Z,23.60
2023-05-07T02:28:04.950Z,23.60
2023-05-07T02:30:56.404Z,23.58
2023-05-07T02:33:24.918Z,23.55
2023-05-07T02:35:53.699Z,23.55
2023-05-07T02:38:22.265Z,23.53
2023-05-07T02:40:52.397Z,23.53
2023-05-07T02:43:20.796Z,23.51
2023-05-07T02:45:51.313Z,23.50
2023-05-07T02:48:19.784Z,23.49
2023-05-07T02:50:48.173Z,23.45
2023-05-07T02:53:17.273Z,23.42
2023-05-07T02:55:46.363Z,23.40
2023-05-07T02:58:16.325Z,23.39
2023-05-07T03:00:45.421Z,23.37
2023-05-07T03:03:34.226Z,23.34
2023-05-07T03:06:02.989Z,23.35
2023-05-07T03:08:31.481Z,23.34
2023-05-07T03:11:00.734Z,23.35
2023-05-07T03:13:30.805Z,23.33
2023-05-07T03:15:59.703Z,23.29
2023-05-07T03:18:28.035Z,23.28
2023-05-07T03:20:56.510Z,23.27
2023-05-07T03:23:25.261Z,23.22
2023-05-07T03:25:53.844Z,23.23
2023-05-07T03:28:22.258Z,23.22
2023-05-07T03:31:00.848Z,23.21
2023-05-07T03:33:29.489Z,23.17
2023-05-07T03:35:58.561Z,23.13
2023-05-07T03:38:28.520Z,23.09
2023-05-07T03:40:57.191Z,23.03
2023-05-07T03:43:25.758Z,22.98
2023-05-07T03:46:03.678Z,22.95
2023-05-07T03:48:32.112Z,22.91
2023-05-07T03:51:01.802Z,22.89
2023-05-07T03:53:34.223Z,22.89
2023-05-07T03:56:03.310Z,22.88
2023-05-07T03:58:36.244Z,22.87
2023-05-07T04:01:10.967Z,22.87
2023-05-07T04:03:39.636Z,22.86
2023-05-07T04:06:08.503Z,22.86
2023-05-07T04:08:38.178Z,22.84
2023-05-07T04:11:07.945Z,22.82
2023-05-07T04:13:38.615Z,22.81
2023-05-07T04:16:10.547Z,22.79
2023-05-07T04:18:40.413Z,22.78
2023-05-07T04:21:16.198Z,22.79
2023-05-07T04:23:44.730Z,22.79
2023-05-07T04:26:15.071Z,22.80
2023-05-07T04:28:46.608Z,22.80
2023-05-07T04:31:18.154Z,22.79
2023-05-07T04:33:51.671Z,22.78
2023-05-07T04:36:20.851Z,22.78
2023-05-07T04:38:54.671Z,22.78
2023-05-07T04:41:23.236Z,22.80
2023-05-07T04:43:52.589Z,22.81
2023-05-07T04:46:26.006Z,22.83
2023-05-07T04:48:55.926Z,22.81
2023-05-07T04:51:24.424Z,22.82
2023-05-07T04:53:53.480Z,22.84
2023-05-07T04:56:22.692Z,22.85
2023-05-07T04:58:51.140Z,22.87
2023-05-07T05:01:24.099Z,22.88
2023-05-07T05:03:53.563Z,22.89
2023-05-07T05:06:22.863Z,22.90
2023-05-07T05:08:53.371Z,22.90
2023-05-07T05:11:22.852Z,22.90
2023-05-07T05:13:51.561Z,22.92
2023-05-07T05:16:24.328Z,22.92
2023-05-07T05:18:53.116Z,22.94
2023-05-07T05:21:21.866Z,22.96
2023-05-07T05:23:53.992Z,22.97
2023-05-07T05:26:25.449Z,22.97
2023-05-07T05:28:53.916Z,22.98
2023-05-07T05:31:27.213Z,22.98
2023-05-07T05:33:55.599Z,22.99
2023-05-07T05:36:24.703Z,23.02
2023-05-07T05:38:56.200Z,23.03
2023-05-07T05:41:25.939Z,23.01
2023-05-07T05:43:54.721Z,23.02
2023-05-07T05:46:23.850Z,23.04
2023-05-07T05:48:55.081Z,23.04
2023-05-07T05:51:24.275Z,23.04
2023-05-07T05:53:52.779Z,23.07
2023-05-07T05:56:23.057Z,23.06
2023-05-07T05:58:51.762Z,23.07
2023-05-07T06:01:20.824Z,23.07
2023-05-07T06:03:51.852Z,23.05
2023-05-07T06:06:21.926Z,23.06
2023-05-07T06:08:50.250Z,23.06
2023-05-07T06:11:23.620Z,23.06
2023-05-07T06:13:52.636Z,23.08
2023-05-07T06:16:21.065Z,23.08
2023-05-07T06:18:49.986Z,23.07
2023-05-07T06:21:19.531Z,23.08
2023-05-07T06:23:49.297Z,23.09
2023-05-07T06:26:18.092Z,23.10
2023-05-07T06:28:49.158Z,23.10
2023-05-07T06:31:22.594Z,23.14
2023-05-07T06:34:04.129Z,23.13
2023-05-07T06:36:37.577Z,23.13
2023-05-07T06:39:16.447Z,23.13
2023-05-07T06:41:45.325Z,23.13
2023-05-07T06:44:24.205Z,23.15
2023-05-07T06:47:09.637Z,23.19
2023-05-07T06:49:40.924Z,23.21
2023-05-07T06:52:09.392Z,23.23
2023-05-07T06:54:39.422Z,23.27
2023-05-07T06:57:08.336Z,23.30
2023-05-07T06:59:37.494Z,23.33
2023-05-07T07:02:06.523Z,23.36
2023-05-07T07:04:35.186Z,23.39
2023-05-07T07:07:07.960Z,23.41
2023-05-07T07:09:39.078Z,23.45
2023-05-07T07:12:09.297Z,23.48
2023-05-07T07:14:40.089Z,23.49
2023-05-07T07:17:08.765Z,23.51
2023-05-07T07:19:38.675Z,23.53
2023-05-07T07:22:07.089Z,23.54
2023-05-07T07:24:35.712Z,23.55
2023-05-07T07:27:08.861Z,23.57
2023-05-07T07:29:37.400Z,23.58
2023-05-07T07:32:06.625Z,23.59
2023-05-07T07:34:35.079Z,23.61
2023-05-07T07:37:07.152Z,23.63
2023-05-07T07:39:38.616Z,23.64
2023-05-07T07:42:09.718Z,23.62
2023-05-07T07:44:40.548Z,23.60
2023-05-07T07:47:11.663Z,23.61
2023-05-07T07:49:40.600Z,23.63
2023-05-07T07:52:10.964Z,23.66
2023-05-07T07:54:40.875Z,23.69
2023-05-07T07:57:11.527Z,23.72
2023-05-07T07:59:40.544Z,23.74
2023-05-07T08:02:09.987Z,23.76
2023-05-07T08:04:39.412Z,23.79
2023-05-07T08:07:09.590Z,23.81
2023-05-07T08:09:42.168Z,23.84
2023-05-07T08:12:14.278Z,23.86
2023-05-07T08:14:42.975Z,23.85
2023-05-07T08:17:11.823Z,23.88
2023-05-07T08:19:40.556Z,23.89
2023-05-07T08:22:12.984Z,23.92
2023-05-07T08:24:42.189Z,23.94
2023-05-07T08:27:11.161Z,23.96
2023-05-07T08:29:43.196Z,23.99
2023-05-07T08:32:12.500Z,24.00
2023-05-07T08:34:41.267Z,24.05
2023-05-07T08:37:09.977Z,24.07
2023-05-07T08:39:39.157Z,24.10
2023-05-07T08:42:13.647Z,24.15
2023-05-07T08:44:47.875Z,24.19
2023-05-07T08:47:18.445Z,24.24
2023-05-07T08:49:48.991Z,24.30
2023-05-07T08:52:17.600Z,24.35
2023-05-07T08:54:46.932Z,24.42
2023-05-07T08:57:15.468Z,24.44
2023-05-07T08:59:45.723Z,24.50
2023-05-07T09:02:14.972Z,24.52
2023-05-07T09:04:43.782Z,24.51
2023-05-07T09:07:12.752Z,24.52
2023-05-07T09:09:47.207Z,24.54
2023-05-07T09:12:16.977Z,24.57
2023-05-07T09:14:46.968Z,24.60
2023-05-07T09:17:15.773Z,24.59
2023-05-07T09:19:46.377Z,24.62
2023-05-07T09:22:16.513Z,24.62
2023-05-07T09:25:09.418Z,24.61
2023-05-07T09:27:40.146Z,24.65
2023-05-07T09:30:12.448Z,24.68
2023-05-07T09:32:41.267Z,24.69
2023-05-07T09:35:18.700Z,24.71
2023-05-07T09:37:52.538Z,24.69
2023-05-07T09:40:26.590Z,24.71
2023-05-07T09:42:56.960Z,24.77
2023-05-07T09:45:30.855Z,24.86
2023-05-07T09:48:01.199Z,24.91
2023-05-07T09:50:38.375Z,24.92
2023-05-07T09:53:07.509Z,24.92
2023-05-07T09:55:36.285Z,24.96
2023-05-07T09:58:06.502Z,24.99
2023-05-07T10:00:37.462Z,24.99
2023-05-07T10:03:14.074Z,24.97
2023-05-07T10:05:54.154Z,25.00
2023-05-07T10:08:23.833Z,25.03
2023-05-07T10:10:56.101Z,25.09
2023-05-07T10:13:27.177Z,25.16
2023-05-07T10:16:00.746Z,25.25
2023-05-07T10:18:34.726Z,25.30
2023-05-07T10:21:18.787Z,25.36
2023-05-07T10:23:52.287Z,25.42
2023-05-07T10:26:25.272Z,25.48
2023-05-07T10:29:01.803Z,25.53
2023-05-07T10:31:54.978Z,25.61
2023-05-07T10:34:26.959Z,25.70
2023-05-07T10:36:57.773Z,25.80
2023-05-07T10:39:27.023Z,25.84
2023-05-07T10:41:55.967Z,25.91
2023-05-07T10:44:29.921Z,25.98
2023-05-07T10:47:12.443Z,26.06
2023-05-07T10:50:22.936Z,26.07
2023-05-07T10:53:30.831Z,26.07
2023-05-07T10:56:31.908Z,26.10
2023-05-07T10:59:43.769Z,26.09
2023-05-07T11:02:25.944Z,26.08
2023-05-07T11:05:23.163Z,26.09
2023-05-07T11:08:12.408Z,26.13
2023-05-07T11:10:55.738Z,26.17
2023-05-07T11:13:46.960Z,26.19
2023-05-07T11:16:37.819Z,26.21
2023-05-07T11:19:16.863Z,26.25
2023-05-07T11:21:50.505Z,26.25
2023-05-07T11:24:43.152Z,26.27
2023-05-07T11:27:13.330Z,26.30
2023-05-07T11:29:41.979Z,26.31
2023-05-07T11:32:15.363Z,26.34
2023-05-07T11:34:55.019Z,26.34
2023-05-07T11:37:25.698Z,26.34
2023-05-07T11:40:09.884Z,26.35
2023-05-07T11:42:40.432Z,26.35
2023-05-07T11:45:10.796Z,26.36
2023-05-07T11:47:39.720Z,26.37
2023-05-07T11:50:13.086Z,26.39
2023-05-07T11:52:41.526Z,26.39
2023-05-07T11:55:11.038Z,26.40
2023-05-07T11:57:39.682Z,26.39
2023-05-07T12:02:44.002Z,26.34
2023-05-07T12:05:15.017Z,26.37
2023-05-07T12:07:43.495Z,26.35
2023-05-07T12:10:14.648Z,26.38
2023-05-07T12:12:44.114Z,26.38
2023-05-07T12:15:13.082Z,26.39
2023-05-07T12:20:14.205Z,26.40
2023-05-07T12:22:43.371Z,26.43
2023-05-07T12:25:12.375Z,26.45
2023-05-07T12:27:43.022Z,26.47
2023-05-07T12:30:14.558Z,26.49
2023-05-07T12:32:43.058Z,26.47
2023-05-07T12:35:13.176Z,26.52
2023-05-07T12:37:43.464Z,26.54
2023-05-07T12:40:14.151Z,26.59
2023-05-07T12:42:43.452Z,26.62
2023-05-07T12:45:13.509Z,26.65
2023-05-07T12:47:46.141Z,26.68
2023-05-07T12:50:17.525Z,26.70
2023-05-07T12:52:46.460Z,26.73
2023-05-07T12:55:17.745Z,26.75
2023-05-07T12:57:51.461Z,26.77
2023-05-07T13:00:20.505Z,26.78
2023-05-07T13:02:49.283Z,26.80
2023-05-07T13:05:19.489Z,26.80
2023-05-07T13:07:55.844Z,26.79
2023-05-07T13:10:25.456Z,26.77
2023-05-07T13:12:54.177Z,26.77
2023-05-07T13:15:24.247Z,26.76
2023-05-07T13:17:52.926Z,26.74
2023-05-07T13:20:23.029Z,26.72
2023-05-07T13:22:51.618Z,26.69
2023-05-07T13:25:20.331Z,26.66
2023-05-07T13:27:56.424Z,26.68
2023-05-07T13:30:31.553Z,26.68
2023-05-07T13:32:59.973Z,26.68
2023-05-07T13:35:30.778Z,26.68
2023-05-07T13:37:59.493Z,26.68
2023-05-07T13:40:28.388Z,26.64
2023-05-07T13:42:59.636Z,26.64
2023-05-07T13:45:30.332Z,26.61
2023-05-07T13:47:59.349Z,26.60
2023-05-07T13:50:30.834Z,26.61
2023-05-07T13:52:59.392Z,26.60
2023-05-07T13:55:28.202Z,26.58
2023-05-07T13:58:01.496Z,26.56
2023-05-07T14:00:31.370Z,26.55
2023-05-07T14:03:00.252Z,26.54
2023-05-07T14:05:30.526Z,26.52
2023-05-07T14:08:00.721Z,26.53
2023-05-07T14:10:29.386Z,26.53
2023-05-07T14:12:57.917Z,26.52
2023-05-07T14:15:26.384Z,26.50
2023-05-07T14:17:54.890Z,26.50
2023-05-07T14:20:23.367Z,26.49
2023-05-07T14:22:53.220Z,26.52
2023-05-07T14:25:21.618Z,26.51
2023-05-07T14:27:53.185Z,26.49
2023-05-07T14:30:23.384Z,26.49
2023-05-07T14:32:51.873Z,26.51
2023-05-07T14:35:20.484Z,26.51
2023-05-07T14:37:49.154Z,26.50
2023-05-07T14:40:19.363Z,26.51
2023-05-07T14:42:47.945Z,26.50
2023-05-07T14:45:16.450Z,26.48
2023-05-07T14:47:45.365Z,26.49
2023-05-07T14:50:13.857Z,26.49
2023-05-07T14:52:42.236Z,26.49
2023-05-07T14:55:11.487Z,26.53
2023-05-07T14:57:41.490Z,26.55
2023-05-07T15:00:12.318Z,26.56
2023-05-07T15:02:40.958Z,26.55
2023-05-07T15:05:10.087Z,26.55
2023-05-07T15:07:38.881Z,26.56
2023-05-07T15:10:08.913Z,26.57
2023-05-07T15:12:38.047Z,26.58
2023-05-07T15:15:10.874Z,26.58
2023-05-07T15:17:39.846Z,26.57
2023-05-07T15:20:10.052Z,26.59
2023-05-07T15:22:39.654Z,26.56
2023-05-07T15:25:10.635Z,26.56
2023-05-07T15:27:39.501Z,26.53
2023-05-07T15:30:12.191Z,26.53
2023-05-07T15:32:41.358Z,26.53
2023-05-07T15:35:11.722Z,26.53
2023-05-07T15:37:40.441Z,26.53
2023-05-07T15:40:11.697Z,26.49
2023-05-07T15:42:40.521Z,26.48
2023-05-07T15:45:12.838Z,26.49
2023-05-07T15:47:41.615Z,26.48
2023-05-07T15:50:11.231Z,26.50
2023-05-07T15:52:41.689Z,26.50
2023-05-07T15:55:11.165Z,26.47
2023-05-07T15:57:40.106Z,26.44
2023-05-07T16:00:12.599Z,26.45
2023-05-07T16:02:41.380Z,26.44
2023-05-07T16:05:12.018Z,26.45
2023-05-07T16:07:44.160Z,26.47
2023-05-07T16:10:13.394Z,26.45
2023-05-07T16:12:42.045Z,26.45
2023-05-07T16:15:13.630Z,26.46
2023-05-07T16:17:42.245Z,26.44
2023-05-07T16:20:13.103Z,26.43
2023-05-07T16:22:42.431Z,26.44
2023-05-07T16:25:11.619Z,26.44
2023-05-07T16:27:40.554Z,26.46
2023-05-07T16:30:12.115Z,26.48
2023-05-07T16:32:41.088Z,26.49
2023-05-07T16:35:10.824Z,26.48
2023-05-07T16:37:42.652Z,26.50
2023-05-07T16:40:12.675Z,26.50
2023-05-07T16:42:41.456Z,26.50
2023-05-07T16:45:13.665Z,26.50
2023-05-07T16:47:42.331Z,26.48
2023-05-07T16:50:12.260Z,26.46
2023-05-07T16:52:40.784Z,26.45
2023-05-07T16:55:10.280Z,26.43
2023-05-07T16:57:38.799Z,26.41
2023-05-07T17:00:09.947Z,26.39
2023-05-07T17:02:39.997Z,26.37
2023-05-07T17:05:10.328Z,26.32
2023-05-07T17:07:39.338Z,26.29
2023-05-07T17:10:09.389Z,26.27
2023-05-07T17:12:38.155Z,26.26
2023-05-07T17:15:07.989Z,26.25
2023-05-07T17:17:36.427Z,26.25
2023-05-07T17:20:09.202Z,26.25
2023-05-07T17:22:37.576Z,26.25
2023-05-07T17:25:07.357Z,26.24
2023-05-07T17:27:35.912Z,26.26
2023-05-07T17:30:04.769Z,26.28
2023-05-07T17:32:35.102Z,26.28
2023-05-07T17:35:03.844Z,26.28
2023-05-07T17:37:33.682Z,26.30
2023-05-07T17:40:03.004Z,26.29
2023-05-07T17:42:32.123Z,26.29
2023-05-07T17:45:00.899Z,26.30
2023-05-07T17:47:29.412Z,26.27
2023-05-07T17:49:58.401Z,26.28
2023-05-07T17:52:27.484Z,26.27
2023-05-07T17:54:57.575Z,26.28
2023-05-07T17:57:26.747Z,26.27
2023-05-07T17:59:55.165Z,26.25
2023-05-07T18:02:23.855Z,26.25
2023-05-07T18:04:52.350Z,26.25
2023-05-07T18:07:21.453Z,26.25
2023-05-07T18:09:50.351Z,26.24
2023-05-07T18:12:20.459Z,26.23
2023-05-07T18:14:48.849Z,26.23
2023-05-07T18:17:18.161Z,26.19
2023-05-07T18:19:46.607Z,26.16
2023-05-07T18:22:15.313Z,26.14
2023-05-07T18:24:43.735Z,26.12
2023-05-07T18:27:13.558Z,26.09
2023-05-07T18:29:43.467Z,26.08
2023-05-07T18:32:12.106Z,26.07
2023-05-07T18:34:40.598Z,26.06
2023-05-07T18:37:09.100Z,26.03
2023-05-07T18:39:37.621Z,26.02
2023-05-07T18:42:08.195Z,26.00
2023-05-07T18:44:38.591Z,25.97
2023-05-07T18:47:08.878Z,25.97
2023-05-07T18:49:38.070Z,25.93
2023-05-07T18:52:06.785Z,25.91
2023-05-07T18:54:35.276Z,25.85
2023-05-07T18:57:03.682Z,25.82
2023-05-07T18:59:32.212Z,25.78
2023-05-07T19:02:00.731Z,25.76
2023-05-07T19:04:32.072Z,25.75
2023-05-07T19:07:01.133Z,25.72
2023-05-07T19:09:29.514Z,25.72
2023-05-07T19:11:58.142Z,25.70
2023-05-07T19:14:26.958Z,25.66
2023-05-07T19:16:55.636Z,25.64
2023-05-07T19:19:24.317Z,25.62
2023-05-07T19:21:54.643Z,25.60
2023-05-07T19:24:23.225Z,25.59
2023-05-07T19:26:51.716Z,25.56
2023-05-07T19:29:20.104Z,25.53
2023-05-07T19:31:49.175Z,25.51
2023-05-07T19:34:17.590Z,25.49
2023-05-07T19:36:46.051Z,25.49
2023-05-07T19:39:17.247Z,25.48
2023-05-07T19:41:46.832Z,25.47
2023-05-07T19:44:15.269Z,25.47
2023-05-07T19:46:45.858Z,25.46
2023-05-07T19:49:14.490Z,25.46
2023-05-07T19:51:42.881Z,25.46
2023-05-07T19:54:11.374Z,25.46
2023-05-07T19:56:41.966Z,25.46
2023-05-07T19:59:10.892Z,25.45
2023-05-07T20:01:40.162Z,25.46
2023-05-07T20:04:08.793Z,25.46
2023-05-07T20:06:37.680Z,25.47
2023-05-07T20:09:07.526Z,25.46
2023-05-07T20:11:36.187Z,25.46
2023-05-07T20:14:06.325Z,25.44
2023-05-07T20:16:34.855Z,25.41
2023-05-07T20:19:05.533Z,25.39
2023-05-07T20:21:34.047Z,25.39
2023-05-07T20:24:02.533Z,25.39
2023-05-07T20:26:31.013Z,25.37
2023-05-07T20:28:59.630Z,25.36
2023-05-07T20:31:32.023Z,25.33
2023-05-07T20:34:00.491Z,25.30
2023-05-07T20:36:29.503Z,25.29
2023-05-07T20:38:57.902Z,25.27
2023-05-07T20:41:26.193Z,25.24
2023-05-07T20:43:54.577Z,25.21
2023-05-07T20:46:25.202Z,25.19
2023-05-07T20:48:55.290Z,25.15
2023-05-07T20:51:23.751Z,25.14
2023-05-07T20:53:52.505Z,25.13
2023-05-07T20:56:21.380Z,25.12
2023-05-07T20:58:49.794Z,25.09
2023-05-07T21:01:18.280Z,25.07
2023-05-07T21:03:46.814Z,25.03
2023-05-07T21:06:16.734Z,25.02
2023-05-07T21:08:45.142Z,25.00
2023-05-07T21:11:13.569Z,25.00
2023-05-07T21:13:42.384Z,24.99
2023-05-07T21:16:11.416Z,24.98
2023-05-07T21:18:39.886Z,24.97
2023-05-07T21:21:11.413Z,24.96
2023-05-07T21:23:41.346Z,24.95
2023-05-07T21:26:10.274Z,24.93
2023-05-07T21:28:38.889Z,24.90
2023-05-07T21:31:07.351Z,24.86
2023-05-07T21:33:35.876Z,24.84
2023-05-07T21:36:04.296Z,24.79
2023-05-07T21:38:32.676Z,24.77
2023-05-07T21:41:02.470Z,24.76
2023-05-07T21:43:31.327Z,24.75
2023-05-07T21:46:00.486Z,24.75
2023-05-07T21:48:28.951Z,24.74
2023-05-07T21:51:05.166Z,24.75
2023-05-07T21:53:34.140Z,24.71
2023-05-07T21:56:04.979Z,24.71
2023-05-07T21:58:33.686Z,24.69
2023-05-07T22:01:02.609Z,24.67
2023-05-07T22:03:31.111Z,24.68
2023-05-07T22:05:59.652Z,24.67
2023-05-07T22:08:27.954Z,24.67
2023-05-07T22:10:56.783Z,24.68
2023-05-07T22:13:27.082Z,24.67
2023-05-07T22:15:58.453Z,24.65
2023-05-07T22:18:27.463Z,24.64
2023-05-07T22:20:55.985Z,24.64
2023-05-07T22:23:24.967Z,24.62
2023-05-07T22:25:53.851Z,24.62
2023-05-07T22:28:22.775Z,24.60
2023-05-07T22:30:53.498Z,24.61
2023-05-07T22:33:22.258Z,24.60
2023-05-07T22:35:50.934Z,24.58
2023-05-07T22:38:19.450Z,24.59
2023-05-07T22:40:47.820Z,24.56
2023-05-07T22:43:16.239Z,24.56
2023-05-07T22:45:44.590Z,24.55
2023-05-07T22:48:14.752Z,24.54
2023-05-07T22:50:43.278Z,24.53
2023-05-07T22:53:11.603Z,24.51
2023-05-07T22:55:39.975Z,24.49
2023-05-07T22:58:08.730Z,24.50
2023-05-07T23:00:37.562Z,24.47
2023-05-07T23:03:06.139Z,24.46
2023-05-07T23:05:36.246Z,24.43
2023-05-07T23:08:05.297Z,24.42
2023-05-07T23:10:35.074Z,24.40
2023-05-07T23:13:03.573Z,24.37
2023-05-07T23:15:33.400Z,24.34
2023-05-07T23:18:01.796Z,24.32
2023-05-07T23:20:32.515Z,24.32
2023-05-07T23:23:02.911Z,24.30
2023-05-07T23:25:31.400Z,24.30
2023-05-07T23:28:00.695Z,24.30
2023-05-07T23:30:29.072Z,24.28
2023-05-07T23:32:57.456Z,24.27
2023-05-07T23:35:25.821Z,24.28
2023-05-07T23:37:54.269Z,24.25
2023-05-07T23:40:24.439Z,24.25
2023-05-07T23:42:53.173Z,24.24
2023-05-07T23:45:21.558Z,24.23
2023-05-07T23:47:49.929Z,24.24
2023-05-07T23:50:18.791Z,24.23
2023-05-07T23:52:47.348Z,24.23
2023-05-07T23:55:16.772Z,24.21
2023-05-07T23:57:46.916Z,24.19
